sensor_id;sensor_type;location;lat;lon;timestamp;P1;durP1;ratioP1;P2;durP2;ratioP2
35188;SDS011;21762;54.480;18.556;2023-06-01T00:00:04;16.45;;;2.58;;
35188;SDS011;21762;54.480;18.556;2023-06-01T00:02:40;7.82;;;2.65;;
35188;SDS011;21762;54.480;18.556;2023-06-01T00:05:08;9.10;;;3.03;;
35188;SDS011;21762;54.480;18.556;2023-06-01T00:07:37;6.90;;;2.55;;
35188;SDS011;21762;54.480;18.556;2023-06-01T00:10:06;7.03;;;2.83;;
35188;SDS011;21762;54.480;18.556;2023-06-01T00:12:36;11.55;;;2.78;;
35188;SDS011;21762;54.480;18.556;2023-06-01T00:15:05;9.52;;;2.50;;
35188;SDS011;21762;54.480;18.556;2023-06-01T00:17:35;8.90;;;2.95;;
35188;SDS011;21762;54.480;18.556;2023-06-01T00:20:04;11.25;;;3.38;;
35188;SDS011;21762;54.480;18.556;2023-06-01T00:22:35;11.52;;;3.03;;
35188;SDS011;21762;54.480;18.556;2023-06-01T00:25:05;12.30;;;2.88;;
35188;SDS011;21762;54.480;18.556;2023-06-01T00:27:35;14.15;;;2.42;;
35188;SDS011;21762;54.480;18.556;2023-06-01T00:30:05;12.18;;;2.97;;
35188;SDS011;21762;54.480;18.556;2023-06-01T00:32:34;10.18;;;3.30;;
35188;SDS011;21762;54.480;18.556;2023-06-01T00:35:03;10.15;;;2.83;;
35188;SDS011;21762;54.480;18.556;2023-06-01T00:37:32;11.43;;;2.75;;
35188;SDS011;21762;54.480;18.556;2023-06-01T00:40:01;10.93;;;2.40;;
35188;SDS011;21762;54.480;18.556;2023-06-01T00:42:30;11.02;;;3.20;;
35188;SDS011;21762;54.480;18.556;2023-06-01T00:45:00;11.65;;;2.80;;
35188;SDS011;21762;54.480;18.556;2023-06-01T00:47:29;14.80;;;2.85;;
35188;SDS011;21762;54.480;18.556;2023-06-01T00:49:58;10.20;;;2.88;;
35188;SDS011;21762;54.480;18.556;2023-06-01T00:52:27;8.02;;;2.63;;
35188;SDS011;21762;54.480;18.556;2023-06-01T00:54:56;12.38;;;2.97;;
35188;SDS011;21762;54.480;18.556;2023-06-01T00:57:24;5.80;;;2.47;;
35188;SDS011;21762;54.480;18.556;2023-06-01T00:59:55;11.73;;;2.80;;
35188;SDS011;21762;54.480;18.556;2023-06-01T01:02:25;9.65;;;2.80;;
35188;SDS011;21762;54.480;18.556;2023-06-01T01:04:58;7.90;;;2.72;;
35188;SDS011;21762;54.480;18.556;2023-06-01T01:07:29;8.90;;;2.65;;
35188;SDS011;21762;54.480;18.556;2023-06-01T01:10:03;9.82;;;3.38;;
35188;SDS011;21762;54.480;18.556;2023-06-01T01:12:39;18.05;;;3.30;;
35188;SDS011;21762;54.480;18.556;2023-06-01T01:15:15;7.25;;;2.92;;
35188;SDS011;21762;54.480;18.556;2023-06-01T01:17:50;7.20;;;2.65;;
35188;SDS011;21762;54.480;18.556;2023-06-01T01:20:24;10.45;;;3.03;;
35188;SDS011;21762;54.480;18.556;2023-06-01T01:23:02;9.02;;;2.50;;
35188;SDS011;21762;54.480;18.556;2023-06-01T01:28:47;13.27;;;3.20;;
35188;SDS011;21762;54.480;18.556;2023-06-01T01:31:18;9.25;;;3.40;;
35188;SDS011;21762;54.480;18.556;2023-06-01T01:33:50;8.38;;;3.17;;
35188;SDS011;21762;54.480;18.556;2023-06-01T01:36:19;14.77;;;2.90;;
35188;SDS011;21762;54.480;18.556;2023-06-01T01:38:48;14.80;;;3.65;;
35188;SDS011;21762;54.480;18.556;2023-06-01T01:41:17;10.00;;;3.28;;
35188;SDS011;21762;54.480;18.556;2023-06-01T01:43:47;14.35;;;3.45;;
35188;SDS011;21762;54.480;18.556;2023-06-01T01:46:21;12.38;;;5.07;;
35188;SDS011;21762;54.480;18.556;2023-06-01T01:48:54;10.63;;;2.80;;
35188;SDS011;21762;54.480;18.556;2023-06-01T01:51:31;11.43;;;3.40;;
35188;SDS011;21762;54.480;18.556;2023-06-01T01:54:04;15.55;;;3.83;;
35188;SDS011;21762;54.480;18.556;2023-06-01T01:56:35;13.65;;;3.83;;
35188;SDS011;21762;54.480;18.556;2023-06-01T01:59:05;9.55;;;3.05;;
35188;SDS011;21762;54.480;18.556;2023-06-01T02:01:34;8.52;;;3.10;;
35188;SDS011;21762;54.480;18.556;2023-06-01T02:04:05;14.02;;;3.80;;
35188;SDS011;21762;54.480;18.556;2023-06-01T02:06:35;9.95;;;3.13;;
35188;SDS011;21762;54.480;18.556;2023-06-01T02:09:04;14.50;;;4.03;;
35188;SDS011;21762;54.480;18.556;2023-06-01T02:11:34;8.80;;;3.42;;
35188;SDS011;21762;54.480;18.556;2023-06-01T02:14:03;8.10;;;3.38;;
35188;SDS011;21762;54.480;18.556;2023-06-01T02:16:33;12.02;;;4.40;;
35188;SDS011;21762;54.480;18.556;2023-06-01T02:19:02;8.38;;;3.30;;
35188;SDS011;21762;54.480;18.556;2023-06-01T02:21:31;15.50;;;3.88;;
35188;SDS011;21762;54.480;18.556;2023-06-01T02:24:01;10.32;;;3.95;;
35188;SDS011;21762;54.480;18.556;2023-06-01T02:26:32;13.10;;;3.70;;
35188;SDS011;21762;54.480;18.556;2023-06-01T02:29:02;13.55;;;3.90;;
35188;SDS011;21762;54.480;18.556;2023-06-01T02:31:33;7.97;;;3.40;;
35188;SDS011;21762;54.480;18.556;2023-06-01T02:34:03;7.72;;;3.67;;
35188;SDS011;21762;54.480;18.556;2023-06-01T02:36:32;12.27;;;4.18;;
35188;SDS011;21762;54.480;18.556;2023-06-01T02:39:01;10.82;;;2.97;;
35188;SDS011;21762;54.480;18.556;2023-06-01T02:41:30;8.43;;;3.47;;
35188;SDS011;21762;54.480;18.556;2023-06-01T02:43:59;9.13;;;3.40;;
35188;SDS011;21762;54.480;18.556;2023-06-01T02:46:27;11.88;;;3.35;;
35188;SDS011;21762;54.480;18.556;2023-06-01T02:48:57;8.15;;;3.40;;
35188;SDS011;21762;54.480;18.556;2023-06-01T02:51:27;11.37;;;3.80;;
35188;SDS011;21762;54.480;18.556;2023-06-01T02:54:08;10.23;;;3.88;;
35188;SDS011;21762;54.480;18.556;2023-06-01T02:56:37;7.72;;;3.40;;
35188;SDS011;21762;54.480;18.556;2023-06-01T02:59:05;14.35;;;4.20;;
35188;SDS011;21762;54.480;18.556;2023-06-01T03:01:39;9.32;;;3.20;;
35188;SDS011;21762;54.480;18.556;2023-06-01T03:04:09;9.95;;;3.65;;
35188;SDS011;21762;54.480;18.556;2023-06-01T03:06:39;12.32;;;3.30;;
35188;SDS011;21762;54.480;18.556;2023-06-01T03:09:07;9.63;;;3.05;;
35188;SDS011;21762;54.480;18.556;2023-06-01T03:11:58;11.32;;;3.00;;
35188;SDS011;21762;54.480;18.556;2023-06-01T03:14:29;8.32;;;3.60;;
35188;SDS011;21762;54.480;18.556;2023-06-01T03:16:58;10.18;;;3.25;;
35188;SDS011;21762;54.480;18.556;2023-06-01T03:19:28;8.45;;;3.33;;
35188;SDS011;21762;54.480;18.556;2023-06-01T03:21:59;12.55;;;3.50;;
35188;SDS011;21762;54.480;18.556;2023-06-01T03:24:27;10.52;;;3.65;;
35188;SDS011;21762;54.480;18.556;2023-06-01T03:27:00;12.85;;;3.60;;
35188;SDS011;21762;54.480;18.556;2023-06-01T03:29:34;12.38;;;3.45;;
35188;SDS011;21762;54.480;18.556;2023-06-01T03:32:02;14.25;;;3.97;;
35188;SDS011;21762;54.480;18.556;2023-06-01T03:34:33;9.77;;;3.53;;
35188;SDS011;21762;54.480;18.556;2023-06-01T03:37:03;10.55;;;2.95;;
35188;SDS011;21762;54.480;18.556;2023-06-01T03:39:32;9.65;;;3.40;;
35188;SDS011;21762;54.480;18.556;2023-06-01T03:42:05;12.82;;;3.38;;
35188;SDS011;21762;54.480;18.556;2023-06-01T03:44:36;12.03;;;3.70;;
35188;SDS011;21762;54.480;18.556;2023-06-01T03:47:06;10.20;;;4.03;;
35188;SDS011;21762;54.480;18.556;2023-06-01T03:49:36;10.63;;;2.83;;
35188;SDS011;21762;54.480;18.556;2023-06-01T03:52:08;11.38;;;2.95;;
35188;SDS011;21762;54.480;18.556;2023-06-01T03:54:37;11.40;;;3.15;;
35188;SDS011;21762;54.480;18.556;2023-06-01T03:57:16;8.02;;;3.25;;
35188;SDS011;21762;54.480;18.556;2023-06-01T03:59:46;13.75;;;3.10;;
35188;SDS011;21762;54.480;18.556;2023-06-01T04:02:14;10.32;;;3.15;;
35188;SDS011;21762;54.480;18.556;2023-06-01T04:04:46;13.80;;;3.03;;
35188;SDS011;21762;54.480;18.556;2023-06-01T04:07:15;7.32;;;2.53;;
35188;SDS011;21762;54.480;18.556;2023-06-01T04:09:48;14.02;;;3.08;;
35188;SDS011;21762;54.480;18.556;2023-06-01T04:12:17;12.88;;;3.15;;
35188;SDS011;21762;54.480;18.556;2023-06-01T04:14:46;13.48;;;3.15;;
35188;SDS011;21762;54.480;18.556;2023-06-01T04:17:14;12.32;;;3.40;;
35188;SDS011;21762;54.480;18.556;2023-06-01T04:19:46;7.97;;;3.25;;
35188;SDS011;21762;54.480;18.556;2023-06-01T04:22:17;12.45;;;2.97;;
35188;SDS011;21762;54.480;18.556;2023-06-01T04:24:45;13.82;;;2.88;;
35188;SDS011;21762;54.480;18.556;2023-06-01T04:27:14;13.57;;;4.10;;
35188;SDS011;21762;54.480;18.556;2023-06-01T04:29:43;14.95;;;3.60;;
35188;SDS011;21762;54.480;18.556;2023-06-01T04:34:50;9.63;;;2.88;;
35188;SDS011;21762;54.480;18.556;2023-06-01T04:37:20;13.30;;;3.42;;
35188;SDS011;21762;54.480;18.556;2023-06-01T04:39:49;12.07;;;3.33;;
35188;SDS011;21762;54.480;18.556;2023-06-01T04:42:18;11.90;;;2.97;;
35188;SDS011;21762;54.480;18.556;2023-06-01T04:44:48;11.27;;;3.60;;
35188;SDS011;21762;54.480;18.556;2023-06-01T04:47:17;10.02;;;3.33;;
35188;SDS011;21762;54.480;18.556;2023-06-01T04:49:53;9.23;;;3.03;;
35188;SDS011;21762;54.480;18.556;2023-06-01T04:52:23;5.88;;;2.65;;
35188;SDS011;21762;54.480;18.556;2023-06-01T04:54:51;8.70;;;2.58;;
35188;SDS011;21762;54.480;18.556;2023-06-01T04:57:20;8.68;;;3.20;;
35188;SDS011;21762;54.480;18.556;2023-06-01T04:59:50;13.68;;;3.33;;
35188;SDS011;21762;54.480;18.556;2023-06-01T05:02:24;8.60;;;2.80;;
35188;SDS011;21762;54.480;18.556;2023-06-01T05:04:54;10.15;;;3.10;;
35188;SDS011;21762;54.480;18.556;2023-06-01T05:07:23;8.43;;;3.58;;
35188;SDS011;21762;54.480;18.556;2023-06-01T05:09:52;16.55;;;3.85;;
35188;SDS011;21762;54.480;18.556;2023-06-01T05:12:21;9.15;;;2.65;;
35188;SDS011;21762;54.480;18.556;2023-06-01T05:14:50;12.98;;;3.05;;
35188;SDS011;21762;54.480;18.556;2023-06-01T05:17:19;13.48;;;3.92;;
35188;SDS011;21762;54.480;18.556;2023-06-01T05:19:47;10.70;;;2.90;;
35188;SDS011;21762;54.480;18.556;2023-06-01T05:22:17;10.32;;;3.05;;
35188;SDS011;21762;54.480;18.556;2023-06-01T05:24:46;11.85;;;3.17;;
35188;SDS011;21762;54.480;18.556;2023-06-01T05:27:15;12.30;;;3.30;;
35188;SDS011;21762;54.480;18.556;2023-06-01T05:29:44;12.27;;;3.60;;
35188;SDS011;21762;54.480;18.556;2023-06-01T05:32:13;13.15;;;4.05;;
35188;SDS011;21762;54.480;18.556;2023-06-01T05:34:42;15.55;;;2.85;;
35188;SDS011;21762;54.480;18.556;2023-06-01T05:37:11;13.10;;;3.38;;
35188;SDS011;21762;54.480;18.556;2023-06-01T05:39:41;10.00;;;3.28;;
35188;SDS011;21762;54.480;18.556;2023-06-01T05:42:12;9.25;;;3.10;;
35188;SDS011;21762;54.480;18.556;2023-06-01T05:44:42;12.10;;;3.15;;
35188;SDS011;21762;54.480;18.556;2023-06-01T05:47:11;10.30;;;2.83;;
35188;SDS011;21762;54.480;18.556;2023-06-01T05:49:41;13.35;;;3.28;;
35188;SDS011;21762;54.480;18.556;2023-06-01T05:52:10;7.28;;;2.78;;
35188;SDS011;21762;54.480;18.556;2023-06-01T05:54:42;13.65;;;2.88;;
35188;SDS011;21762;54.480;18.556;2023-06-01T05:57:11;9.77;;;2.45;;
35188;SDS011;21762;54.480;18.556;2023-06-01T05:59:40;11.52;;;3.28;;
35188;SDS011;21762;54.480;18.556;2023-06-01T06:02:09;10.00;;;2.35;;
35188;SDS011;21762;54.480;18.556;2023-06-01T06:04:38;12.25;;;2.97;;
35188;SDS011;21762;54.480;18.556;2023-06-01T06:07:07;7.97;;;2.63;;
35188;SDS011;21762;54.480;18.556;2023-06-01T06:09:36;6.13;;;2.30;;
35188;SDS011;21762;54.480;18.556;2023-06-01T06:12:07;7.40;;;2.60;;
35188;SDS011;21762;54.480;18.556;2023-06-01T06:14:36;8.80;;;2.33;;
35188;SDS011;21762;54.480;18.556;2023-06-01T06:17:06;5.93;;;2.20;;
35188;SDS011;21762;54.480;18.556;2023-06-01T06:19:35;9.60;;;2.38;;
35188;SDS011;21762;54.480;18.556;2023-06-01T06:22:04;8.98;;;2.42;;
35188;SDS011;21762;54.480;18.556;2023-06-01T06:24:33;11.82;;;2.70;;
35188;SDS011;21762;54.480;18.556;2023-06-01T06:27:02;9.95;;;3.00;;
35188;SDS011;21762;54.480;18.556;2023-06-01T06:29:34;7.93;;;2.63;;
35188;SDS011;21762;54.480;18.556;2023-06-01T06:32:03;8.05;;;2.42;;
35188;SDS011;21762;54.480;18.556;2023-06-01T06:34:33;16.48;;;3.58;;
35188;SDS011;21762;54.480;18.556;2023-06-01T06:37:03;11.05;;;4.13;;
35188;SDS011;21762;54.480;18.556;2023-06-01T06:39:33;7.28;;;2.15;;
35188;SDS011;21762;54.480;18.556;2023-06-01T06:42:04;5.70;;;2.10;;
35188;SDS011;21762;54.480;18.556;2023-06-01T06:44:36;6.45;;;2.20;;
35188;SDS011;21762;54.480;18.556;2023-06-01T06:47:05;39.83;;;5.80;;
35188;SDS011;21762;54.480;18.556;2023-06-01T06:49:35;6.15;;;2.30;;
35188;SDS011;21762;54.480;18.556;2023-06-01T06:52:04;9.77;;;2.15;;
35188;SDS011;21762;54.480;18.556;2023-06-01T06:54:34;7.03;;;2.22;;
35188;SDS011;21762;54.480;18.556;2023-06-01T06:57:04;5.60;;;1.92;;
35188;SDS011;21762;54.480;18.556;2023-06-01T06:59:33;12.88;;;2.45;;
35188;SDS011;21762;54.480;18.556;2023-06-01T07:02:04;10.77;;;2.53;;
35188;SDS011;21762;54.480;18.556;2023-06-01T07:04:34;7.93;;;2.10;;
35188;SDS011;21762;54.480;18.556;2023-06-01T07:07:03;7.65;;;2.17;;
35188;SDS011;21762;54.480;18.556;2023-06-01T07:09:33;7.25;;;2.03;;
35188;SDS011;21762;54.480;18.556;2023-06-01T07:12:01;7.82;;;2.22;;
35188;SDS011;21762;54.480;18.556;2023-06-01T07:14:30;7.38;;;2.03;;
35188;SDS011;21762;54.480;18.556;2023-06-01T07:17:00;11.70;;;2.60;;
35188;SDS011;21762;54.480;18.556;2023-06-01T07:19:30;6.75;;;2.03;;
35188;SDS011;21762;54.480;18.556;2023-06-01T07:22:01;4.70;;;2.10;;
35188;SDS011;21762;54.480;18.556;2023-06-01T07:24:30;7.50;;;2.45;;
35188;SDS011;21762;54.480;18.556;2023-06-01T07:26:59;7.95;;;2.22;;
35188;SDS011;21762;54.480;18.556;2023-06-01T07:29:28;9.15;;;2.30;;
35188;SDS011;21762;54.480;18.556;2023-06-01T07:31:57;5.25;;;1.50;;
35188;SDS011;21762;54.480;18.556;2023-06-01T07:34:26;4.90;;;1.60;;
35188;SDS011;21762;54.480;18.556;2023-06-01T07:36:57;5.50;;;1.80;;
35188;SDS011;21762;54.480;18.556;2023-06-01T07:39:30;6.93;;;2.00;;
35188;SDS011;21762;54.480;18.556;2023-06-01T07:41:59;4.63;;;2.08;;
35188;SDS011;21762;54.480;18.556;2023-06-01T07:44:29;9.35;;;2.53;;
35188;SDS011;21762;54.480;18.556;2023-06-01T07:46:58;7.03;;;2.45;;
35188;SDS011;21762;54.480;18.556;2023-06-01T07:49:28;3.85;;;1.98;;
35188;SDS011;21762;54.480;18.556;2023-06-01T07:52:38;7.13;;;2.00;;
35188;SDS011;21762;54.480;18.556;2023-06-01T07:55:34;4.35;;;1.77;;
35188;SDS011;21762;54.480;18.556;2023-06-01T07:58:40;9.13;;;2.22;;
35188;SDS011;21762;54.480;18.556;2023-06-01T08:01:17;7.75;;;2.22;;
35188;SDS011;21762;54.480;18.556;2023-06-01T08:03:47;8.63;;;1.83;;
35188;SDS011;21762;54.480;18.556;2023-06-01T08:06:17;9.82;;;1.67;;
35188;SDS011;21762;54.480;18.556;2023-06-01T08:08:52;11.27;;;1.88;;
35188;SDS011;21762;54.480;18.556;2023-06-01T08:11:21;6.47;;;1.70;;
35188;SDS011;21762;54.480;18.556;2023-06-01T08:13:51;8.35;;;1.42;;
35188;SDS011;21762;54.480;18.556;2023-06-01T08:16:21;7.28;;;1.90;;
35188;SDS011;21762;54.480;18.556;2023-06-01T08:18:50;12.43;;;2.05;;
35188;SDS011;21762;54.480;18.556;2023-06-01T08:21:19;11.43;;;2.17;;
35188;SDS011;21762;54.480;18.556;2023-06-01T08:23:48;4.03;;;1.42;;
35188;SDS011;21762;54.480;18.556;2023-06-01T08:26:20;4.95;;;1.52;;
35188;SDS011;21762;54.480;18.556;2023-06-01T08:28:49;6.07;;;2.17;;
35188;SDS011;21762;54.480;18.556;2023-06-01T08:31:20;7.07;;;1.90;;
35188;SDS011;21762;54.480;18.556;2023-06-01T08:33:50;10.18;;;1.58;;
35188;SDS011;21762;54.480;18.556;2023-06-01T08:36:20;9.13;;;2.05;;
35188;SDS011;21762;54.480;18.556;2023-06-01T08:38:53;4.25;;;1.67;;
35188;SDS011;21762;54.480;18.556;2023-06-01T08:41:26;7.65;;;1.60;;
35188;SDS011;21762;54.480;18.556;2023-06-01T08:44:02;8.82;;;2.22;;
35188;SDS011;21762;54.480;18.556;2023-06-01T08:46:31;9.57;;;1.77;;
35188;SDS011;21762;54.480;18.556;2023-06-01T08:49:01;4.72;;;1.83;;
35188;SDS011;21762;54.480;18.556;2023-06-01T08:51:31;8.45;;;1.73;;
35188;SDS011;21762;54.480;18.556;2023-06-01T08:54:05;7.00;;;1.67;;
35188;SDS011;21762;54.480;18.556;2023-06-01T08:56:38;5.72;;;1.90;;
35188;SDS011;21762;54.480;18.556;2023-06-01T08:59:09;6.65;;;1.80;;
35188;SDS011;21762;54.480;18.556;2023-06-01T09:01:40;5.40;;;1.33;;
35188;SDS011;21762;54.480;18.556;2023-06-01T09:04:10;12.85;;;2.47;;
35188;SDS011;21762;54.480;18.556;2023-06-01T09:06:41;3.88;;;1.50;;
35188;SDS011;21762;54.480;18.556;2023-06-01T09:09:11;6.13;;;1.60;;
35188;SDS011;21762;54.480;18.556;2023-06-01T09:11:42;9.40;;;2.33;;
35188;SDS011;21762;54.480;18.556;2023-06-01T09:14:21;7.70;;;1.98;;
35188;SDS011;21762;54.480;18.556;2023-06-01T09:16:51;9.52;;;2.05;;
35188;SDS011;21762;54.480;18.556;2023-06-01T09:19:20;8.40;;;1.98;;
35188;SDS011;21762;54.480;18.556;2023-06-01T09:22:00;4.68;;;1.75;;
35188;SDS011;21762;54.480;18.556;2023-06-01T09:24:30;7.72;;;1.50;;
35188;SDS011;21762;54.480;18.556;2023-06-01T09:27:01;13.55;;;2.30;;
35188;SDS011;21762;54.480;18.556;2023-06-01T09:29:31;6.55;;;1.98;;
35188;SDS011;21762;54.480;18.556;2023-06-01T09:32:00;9.90;;;1.90;;
35188;SDS011;21762;54.480;18.556;2023-06-01T09:34:30;4.90;;;2.20;;
35188;SDS011;21762;54.480;18.556;2023-06-01T09:37:04;10.35;;;1.42;;
35188;SDS011;21762;54.480;18.556;2023-06-01T09:39:34;8.00;;;1.95;;
35188;SDS011;21762;54.480;18.556;2023-06-01T09:42:06;4.40;;;1.38;;
35188;SDS011;21762;54.480;18.556;2023-06-01T09:44:37;7.43;;;1.95;;
35188;SDS011;21762;54.480;18.556;2023-06-01T09:47:07;6.60;;;1.83;;
35188;SDS011;21762;54.480;18.556;2023-06-01T09:49:40;7.55;;;2.13;;
35188;SDS011;21762;54.480;18.556;2023-06-01T09:52:11;6.75;;;1.65;;
35188;SDS011;21762;54.480;18.556;2023-06-01T09:57:19;4.43;;;1.25;;
35188;SDS011;21762;54.480;18.556;2023-06-01T09:59:49;8.65;;;1.80;;
35188;SDS011;21762;54.480;18.556;2023-06-01T10:02:19;9.18;;;2.25;;
35188;SDS011;21762;54.480;18.556;2023-06-01T10:04:51;4.37;;;1.70;;
35188;SDS011;21762;54.480;18.556;2023-06-01T10:07:23;5.90;;;1.70;;
35188;SDS011;21762;54.480;18.556;2023-06-01T10:09:54;5.73;;;1.67;;
35188;SDS011;21762;54.480;18.556;2023-06-01T10:12:26;9.30;;;1.97;;
35188;SDS011;21762;54.480;18.556;2023-06-01T10:17:26;4.28;;;1.60;;
35188;SDS011;21762;54.480;18.556;2023-06-01T10:19:56;5.32;;;1.63;;
35188;SDS011;21762;54.480;18.556;2023-06-01T10:22:26;3.25;;;1.58;;
35188;SDS011;21762;54.480;18.556;2023-06-01T10:24:55;7.63;;;2.17;;
35188;SDS011;21762;54.480;18.556;2023-06-01T10:27:29;10.35;;;1.88;;
35188;SDS011;21762;54.480;18.556;2023-06-01T10:30:02;6.68;;;1.73;;
35188;SDS011;21762;54.480;18.556;2023-06-01T10:32:41;6.97;;;1.70;;
35188;SDS011;21762;54.480;18.556;2023-06-01T10:38:42;8.60;;;1.85;;
35188;SDS011;21762;54.480;18.556;2023-06-01T10:41:28;6.10;;;1.70;;
35188;SDS011;21762;54.480;18.556;2023-06-01T10:43:59;5.72;;;1.55;;
35188;SDS011;21762;54.480;18.556;2023-06-01T10:49:13;4.75;;;2.00;;
35188;SDS011;21762;54.480;18.556;2023-06-01T10:51:42;5.88;;;1.77;;
35188;SDS011;21762;54.480;18.556;2023-06-01T11:00:13;8.13;;;1.98;;
35188;SDS011;21762;54.480;18.556;2023-06-01T11:02:51;3.13;;;1.50;;
35188;SDS011;21762;54.480;18.556;2023-06-01T11:05:41;6.18;;;1.73;;
35188;SDS011;21762;54.480;18.556;2023-06-01T11:14:34;11.77;;;1.88;;
35188;SDS011;21762;54.480;18.556;2023-06-01T11:19:57;6.53;;;2.08;;
35188;SDS011;21762;54.480;18.556;2023-06-01T11:22:33;6.07;;;1.77;;
35188;SDS011;21762;54.480;18.556;2023-06-01T11:25:05;7.72;;;2.28;;
35188;SDS011;21762;54.480;18.556;2023-06-01T11:27:35;8.23;;;2.40;;
35188;SDS011;21762;54.480;18.556;2023-06-01T11:30:05;8.13;;;2.03;;
35188;SDS011;21762;54.480;18.556;2023-06-01T11:32:38;9.43;;;2.20;;
35188;SDS011;21762;54.480;18.556;2023-06-01T11:35:15;4.78;;;2.15;;
35188;SDS011;21762;54.480;18.556;2023-06-01T11:37:46;11.63;;;2.50;;
35188;SDS011;21762;54.480;18.556;2023-06-01T11:40:16;7.72;;;1.95;;
35188;SDS011;21762;54.480;18.556;2023-06-01T11:42:48;7.07;;;2.72;;
35188;SDS011;21762;54.480;18.556;2023-06-01T11:45:17;9.05;;;2.45;;
35188;SDS011;21762;54.480;18.556;2023-06-01T11:47:48;12.15;;;2.40;;
35188;SDS011;21762;54.480;18.556;2023-06-01T11:50:21;10.50;;;2.40;;
35188;SDS011;21762;54.480;18.556;2023-06-01T11:52:54;7.28;;;2.35;;
35188;SDS011;21762;54.480;18.556;2023-06-01T11:55:24;10.32;;;2.17;;
35188;SDS011;21762;54.480;18.556;2023-06-01T11:57:54;9.15;;;2.30;;
35188;SDS011;21762;54.480;18.556;2023-06-01T12:00:24;12.90;;;2.72;;
35188;SDS011;21762;54.480;18.556;2023-06-01T12:03:07;9.82;;;1.98;;
35188;SDS011;21762;54.480;18.556;2023-06-01T12:05:40;9.73;;;2.08;;
35188;SDS011;21762;54.480;18.556;2023-06-01T12:08:17;10.60;;;2.72;;
35188;SDS011;21762;54.480;18.556;2023-06-01T12:10:48;10.13;;;2.10;;
35188;SDS011;21762;54.480;18.556;2023-06-01T12:13:19;7.95;;;2.25;;
35188;SDS011;21762;54.480;18.556;2023-06-01T12:15:50;9.75;;;2.38;;
35188;SDS011;21762;54.480;18.556;2023-06-01T12:18:29;8.30;;;1.95;;
35188;SDS011;21762;54.480;18.556;2023-06-01T12:20:59;9.38;;;2.40;;
35188;SDS011;21762;54.480;18.556;2023-06-01T12:23:36;8.27;;;2.25;;
35188;SDS011;21762;54.480;18.556;2023-06-01T12:26:06;6.90;;;2.20;;
35188;SDS011;21762;54.480;18.556;2023-06-01T12:28:48;4.32;;;1.70;;
35188;SDS011;21762;54.480;18.556;2023-06-01T12:31:22;7.38;;;2.30;;
35188;SDS011;21762;54.480;18.556;2023-06-01T12:33:53;5.57;;;2.35;;
35188;SDS011;21762;54.480;18.556;2023-06-01T12:36:29;7.30;;;2.00;;
35188;SDS011;21762;54.480;18.556;2023-06-01T12:38:59;10.80;;;2.67;;
35188;SDS011;21762;54.480;18.556;2023-06-01T12:41:30;6.87;;;2.20;;
35188;SDS011;21762;54.480;18.556;2023-06-01T12:43:59;8.70;;;2.20;;
35188;SDS011;21762;54.480;18.556;2023-06-01T12:46:30;7.50;;;2.50;;
35188;SDS011;21762;54.480;18.556;2023-06-01T12:49:14;9.35;;;2.42;;
35188;SDS011;21762;54.480;18.556;2023-06-01T12:51:46;10.85;;;2.17;;
35188;SDS011;21762;54.480;18.556;2023-06-01T12:54:15;6.85;;;1.83;;
35188;SDS011;21762;54.480;18.556;2023-06-01T12:56:47;13.35;;;2.50;;
35188;SDS011;21762;54.480;18.556;2023-06-01T12:59:16;4.45;;;2.17;;
35188;SDS011;21762;54.480;18.556;2023-06-01T13:01:46;3.08;;;1.52;;
35188;SDS011;21762;54.480;18.556;2023-06-01T13:04:17;6.22;;;2.20;;
35188;SDS011;21762;54.480;18.556;2023-06-01T13:06:46;5.15;;;2.22;;
35188;SDS011;21762;54.480;18.556;2023-06-01T13:09:15;4.75;;;2.13;;
35188;SDS011;21762;54.480;18.556;2023-06-01T13:11:45;5.20;;;2.13;;
35188;SDS011;21762;54.480;18.556;2023-06-01T13:14:14;8.13;;;2.25;;
35188;SDS011;21762;54.480;18.556;2023-06-01T13:16:43;8.82;;;2.80;;
35188;SDS011;21762;54.480;18.556;2023-06-01T13:19:13;11.73;;;2.17;;
35188;SDS011;21762;54.480;18.556;2023-06-01T13:21:43;6.75;;;2.00;;
35188;SDS011;21762;54.480;18.556;2023-06-01T13:24:12;4.85;;;1.92;;
35188;SDS011;21762;54.480;18.556;2023-06-01T13:26:42;8.48;;;2.53;;
35188;SDS011;21762;54.480;18.556;2023-06-01T13:29:11;9.60;;;2.35;;
35188;SDS011;21762;54.480;18.556;2023-06-01T13:31:40;6.13;;;2.40;;
35188;SDS011;21762;54.480;18.556;2023-06-01T13:34:10;23.45;;;3.58;;
35188;SDS011;21762;54.480;18.556;2023-06-01T13:36:39;12.75;;;3.00;;
35188;SDS011;21762;54.480;18.556;2023-06-01T13:39:10;12.02;;;2.60;;
35188;SDS011;21762;54.480;18.556;2023-06-01T13:41:39;9.07;;;2.00;;
35188;SDS011;21762;54.480;18.556;2023-06-01T13:44:08;5.75;;;2.33;;
35188;SDS011;21762;54.480;18.556;2023-06-01T13:46:37;11.50;;;2.80;;
35188;SDS011;21762;54.480;18.556;2023-06-01T13:49:06;8.55;;;2.40;;
35188;SDS011;21762;54.480;18.556;2023-06-01T13:51:36;9.80;;;2.20;;
35188;SDS011;21762;54.480;18.556;2023-06-01T13:54:07;5.30;;;2.30;;
35188;SDS011;21762;54.480;18.556;2023-06-01T13:56:39;8.50;;;2.45;;
35188;SDS011;21762;54.480;18.556;2023-06-01T13:59:08;10.38;;;2.63;;
35188;SDS011;21762;54.480;18.556;2023-06-01T14:01:37;14.00;;;2.20;;
35188;SDS011;21762;54.480;18.556;2023-06-01T14:04:06;4.40;;;1.95;;
35188;SDS011;21762;54.480;18.556;2023-06-01T14:06:35;13.68;;;2.70;;
35188;SDS011;21762;54.480;18.556;2023-06-01T14:09:05;7.68;;;2.70;;
35188;SDS011;21762;54.480;18.556;2023-06-01T14:11:34;7.25;;;1.92;;
35188;SDS011;21762;54.480;18.556;2023-06-01T14:14:05;6.95;;;2.28;;
35188;SDS011;21762;54.480;18.556;2023-06-01T14:16:35;6.97;;;2.50;;
35188;SDS011;21762;54.480;18.556;2023-06-01T14:19:04;8.82;;;2.30;;
35188;SDS011;21762;54.480;18.556;2023-06-01T14:21:33;8.82;;;2.17;;
35188;SDS011;21762;54.480;18.556;2023-06-01T14:24:03;8.88;;;2.22;;
35188;SDS011;21762;54.480;18.556;2023-06-01T14:26:32;7.20;;;2.10;;
35188;SDS011;21762;54.480;18.556;2023-06-01T14:29:01;8.73;;;2.63;;
35188;SDS011;21762;54.480;18.556;2023-06-01T14:31:32;5.13;;;1.70;;
35188;SDS011;21762;54.480;18.556;2023-06-01T14:34:01;5.93;;;2.45;;
35188;SDS011;21762;54.480;18.556;2023-06-01T14:36:30;13.98;;;2.42;;
35188;SDS011;21762;54.480;18.556;2023-06-01T14:39:08;7.57;;;2.58;;
35188;SDS011;21762;54.480;18.556;2023-06-01T14:41:37;7.97;;;2.40;;
35188;SDS011;21762;54.480;18.556;2023-06-01T14:44:09;8.40;;;2.53;;
35188;SDS011;21762;54.480;18.556;2023-06-01T14:46:39;5.00;;;2.00;;
35188;SDS011;21762;54.480;18.556;2023-06-01T14:49:09;13.85;;;2.97;;
35188;SDS011;21762;54.480;18.556;2023-06-01T14:51:38;8.40;;;2.50;;
35188;SDS011;21762;54.480;18.556;2023-06-01T14:54:07;11.57;;;2.20;;
35188;SDS011;21762;54.480;18.556;2023-06-01T14:56:36;11.52;;;2.38;;
35188;SDS011;21762;54.480;18.556;2023-06-01T14:59:05;13.65;;;2.45;;
35188;SDS011;21762;54.480;18.556;2023-06-01T15:01:34;11.35;;;2.22;;
35188;SDS011;21762;54.480;18.556;2023-06-01T15:04:05;8.02;;;2.42;;
35188;SDS011;21762;54.480;18.556;2023-06-01T15:06:34;7.45;;;2.20;;
35188;SDS011;21762;54.480;18.556;2023-06-01T15:09:04;10.07;;;2.15;;
35188;SDS011;21762;54.480;18.556;2023-06-01T15:11:33;9.07;;;2.45;;
35188;SDS011;21762;54.480;18.556;2023-06-01T15:14:02;10.00;;;2.40;;
35188;SDS011;21762;54.480;18.556;2023-06-01T15:16:31;9.00;;;2.28;;
35188;SDS011;21762;54.480;18.556;2023-06-01T15:19:01;13.35;;;2.55;;
35188;SDS011;21762;54.480;18.556;2023-06-01T15:21:32;6.57;;;3.03;;